createdAt,value
2017-07-16T00:01:32.713Z,102409.52
2017-07-16T00:03:59.104Z,102401.91
2017-07-16T00:06:25.509Z,102400.66
2017-07-16T00:08:51.862Z,102400.02
2017-07-16T00:11:18.222Z,102398.23
2017-07-16T00:13:44.596Z,102393.83
2017-07-16T00:17:36.239Z,102389.58
2017-07-16T00:20:03.409Z,102393.45
2017-07-16T00:22:29.804Z,102394.59
2017-07-16T00:24:56.165Z,102396.83
2017-07-16T00:27:22.519Z,102400.05
2017-07-16T00:29:48.873Z,102412.50
2017-07-16T00:32:15.246Z,102418.69
2017-07-16T00:34:41.637Z,102413.55
2017-07-16T00:37:08.021Z,102414.88
2017-07-16T00:39:40.629Z,102401.59
2017-07-16T00:42:07.004Z,102401.80
2017-07-16T00:44:33.367Z,102400.80
2017-07-16T00:46:59.739Z,102391.64
2017-07-16T00:49:26.309Z,102395.92
2017-07-16T00:51:52.670Z,102390.69
2017-07-16T00:54:19.030Z,102397.98
2017-07-16T00:56:45.394Z,102396.98
2017-07-16T00:59:11.789Z,102395.21
2017-07-16T01:01:38.156Z,102400.72
2017-07-16T01:04:04.511Z,102404.05
2017-07-16T01:06:30.867Z,102398.91
2017-07-16T01:11:56.996Z,102389.99
2017-07-16T01:14:23.343Z,102394.58
2017-07-16T01:17:36.036Z,102388.42
2017-07-16T01:20:02.425Z,102393.45
2017-07-16T01:22:28.789Z,102391.31
2017-07-16T01:24:55.158Z,102389.17
2017-07-16T01:27:21.523Z,102389.64
2017-07-16T01:29:47.933Z,102377.48
2017-07-16T01:32:14.375Z,102381.20
2017-07-16T01:34:40.732Z,102370.73
2017-07-16T01:37:07.112Z,102375.61
2017-07-16T01:39:33.479Z,102375.27
2017-07-16T01:41:59.896Z,102379.23
2017-07-16T01:44:26.276Z,102380.55
2017-07-16T01:46:52.640Z,102379.61
2017-07-16T01:49:19.017Z,102378.40
2017-07-16T01:51:45.424Z,102377.28
2017-07-16T01:54:11.831Z,102371.73
2017-07-16T01:56:38.267Z,102372.77
2017-07-16T01:59:04.629Z,102376.06
2017-07-16T02:01:30.968Z,102377.89
2017-07-16T02:03:57.326Z,102371.92
2017-07-16T02:06:23.719Z,102370.61
2017-07-16T02:08:50.129Z,102373.23
2017-07-16T02:11:16.495Z,102365.37
2017-07-16T02:13:42.852Z,102366.16
2017-07-16T02:17:36.165Z,102373.95
2017-07-16T02:20:02.567Z,102367.22
2017-07-16T02:22:28.919Z,102369.96
2017-07-16T02:24:55.269Z,102361.27
2017-07-16T02:27:21.634Z,102360.00
2017-07-16T02:29:48.020Z,102360.36
2017-07-16T02:32:14.411Z,102362.90
2017-07-16T02:34:40.808Z,102364.63
2017-07-16T02:37:07.175Z,102365.89
2017-07-16T02:39:33.646Z,102359.67
2017-07-16T02:41:59.985Z,102363.41
2017-07-16T02:44:26.371Z,102366.11
2017-07-16T02:46:52.740Z,102363.73
2017-07-16T02:49:19.109Z,102358.84
2017-07-16T02:51:45.469Z,102360.06
2017-07-16T02:54:11.857Z,102365.18
2017-07-16T02:56:38.252Z,102358.55
2017-07-16T02:59:04.621Z,102362.60
2017-07-16T03:01:30.977Z,102357.59
2017-07-16T03:03:57.319Z,102356.23
2017-07-16T03:06:23.715Z,102353.08
2017-07-16T03:08:50.103Z,102356.91
2017-07-16T03:11:16.452Z,102351.47
2017-07-16T03:13:42.824Z,102348.23
2017-07-16T03:17:36.495Z,102353.38
2017-07-16T03:20:02.884Z,102354.66
2017-07-16T03:22:29.252Z,102359.37
2017-07-16T03:25:14.394Z,102367.71
2017-07-16T03:27:40.776Z,102361.83
2017-07-16T03:30:07.148Z,102359.37
2017-07-16T03:32:33.531Z,102363.11
2017-07-16T03:34:59.908Z,102358.00
2017-07-16T03:37:26.332Z,102358.45
2017-07-16T03:39:52.758Z,102353.95
2017-07-16T03:42:19.124Z,102351.48
2017-07-16T03:44:45.516Z,102350.80
2017-07-16T03:47:11.883Z,102344.34
2017-07-16T03:49:38.263Z,102351.65
2017-07-16T03:52:04.634Z,102349.42
2017-07-16T03:54:31.000Z,102340.45
2017-07-16T03:56:57.385Z,102348.02
2017-07-16T03:59:23.750Z,102341.94
2017-07-16T04:01:50.125Z,102345.13
2017-07-16T04:04:16.496Z,102343.41
2017-07-16T04:06:42.869Z,102345.95
2017-07-16T04:09:09.273Z,102343.04
2017-07-16T04:11:35.738Z,102341.59
2017-07-16T04:14:02.107Z,102343.61
2017-07-16T04:17:35.690Z,102347.11
2017-07-16T04:20:02.108Z,102342.34
2017-07-16T04:22:28.463Z,102352.70
2017-07-16T04:24:54.817Z,102352.45
2017-07-16T04:27:21.180Z,102348.61
2017-07-16T04:29:47.528Z,102355.36
2017-07-16T04:32:13.971Z,102350.50
2017-07-16T04:34:40.326Z,102351.86
2017-07-16T04:37:06.664Z,102351.61
2017-07-16T04:39:32.894Z,102355.65
2017-07-16T04:41:59.131Z,102356.63
2017-07-16T04:44:25.381Z,102355.79
2017-07-16T04:46:51.623Z,102355.80
2017-07-16T04:49:17.864Z,102356.73
2017-07-16T04:51:44.092Z,102354.67
2017-07-16T04:54:10.356Z,102361.90
2017-07-16T04:56:36.626Z,102367.39
2017-07-16T04:59:02.865Z,102362.57
2017-07-16T05:01:29.109Z,102365.19
2017-07-16T05:03:55.337Z,102364.00
2017-07-16T05:06:21.579Z,102359.94
2017-07-16T05:08:47.821Z,102367.73
2017-07-16T05:11:14.081Z,102369.45
2017-07-16T05:13:40.325Z,102370.98
2017-07-16T05:17:35.458Z,102373.44
2017-07-16T05:20:01.709Z,102377.61
2017-07-16T05:22:27.963Z,102377.76
2017-07-16T05:24:54.209Z,102378.70
2017-07-16T05:27:20.445Z,102380.42
2017-07-16T05:29:46.713Z,102378.25
2017-07-16T05:32:12.944Z,102381.25
2017-07-16T05:34:39.197Z,102377.70
2017-07-16T05:37:05.438Z,102381.55
2017-07-16T05:39:31.682Z,102384.54
2017-07-16T05:41:57.944Z,102381.49
2017-07-16T05:44:24.205Z,102379.33
2017-07-16T05:46:50.436Z,102385.33
2017-07-16T05:49:16.676Z,102379.23
2017-07-16T05:51:42.891Z,102380.17
2017-07-16T05:54:09.152Z,102390.27
2017-07-16T05:56:35.383Z,102386.16
2017-07-16T05:59:01.635Z,102387.05
2017-07-16T06:01:27.887Z,102382.67
2017-07-16T06:03:54.132Z,102379.42
2017-07-16T06:06:20.392Z,102381.41
2017-07-16T06:08:46.635Z,102386.91
2017-07-16T06:11:12.893Z,102396.24
2017-07-16T06:13:39.130Z,102396.89
2017-07-16T06:17:35.826Z,102397.13
2017-07-16T06:20:02.096Z,102404.80
2017-07-16T06:22:28.346Z,102399.31
2017-07-16T06:24:54.584Z,102402.56
2017-07-16T06:27:20.844Z,102400.48
2017-07-16T06:29:47.224Z,102404.23
2017-07-16T06:32:13.487Z,102401.99
2017-07-16T06:34:39.732Z,102401.94
2017-07-16T06:37:05.959Z,102401.33
2017-07-16T06:39:32.192Z,102404.17
2017-07-16T06:41:58.440Z,102399.79
2017-07-16T06:44:24.689Z,102408.81
2017-07-16T06:46:50.932Z,102411.80
2017-07-16T06:49:17.163Z,102416.80
2017-07-16T06:51:43.403Z,102411.07
2017-07-16T06:54:09.685Z,102413.97
2017-07-16T06:56:35.958Z,102415.20
2017-07-16T06:59:02.199Z,102421.05
2017-07-16T07:01:28.462Z,102415.98
2017-07-16T07:03:54.749Z,102421.32
2017-07-16T07:06:27.959Z,102419.85
2017-07-16T07:08:54.223Z,102421.61
2017-07-16T07:11:20.447Z,102426.16
2017-07-16T07:13:46.698Z,102424.44
2017-07-16T07:17:36.167Z,102423.84
2017-07-16T07:20:02.453Z,102418.84
2017-07-16T07:22:28.720Z,102424.30
2017-07-16T07:24:54.981Z,102424.58
2017-07-16T07:27:21.241Z,102418.88
2017-07-16T07:29:47.603Z,102421.66
2017-07-16T07:32:13.869Z,102417.12
2017-07-16T07:34:40.169Z,102420.23
2017-07-16T07:37:06.422Z,102418.47
2017-07-16T07:39:32.673Z,102418.02
2017-07-16T07:41:58.941Z,102414.97
2017-07-16T07:44:25.244Z,102414.37
2017-07-16T07:46:51.473Z,102410.66
2017-07-16T07:49:17.724Z,102414.72
2017-07-16T07:51:44.008Z,102418.20
2017-07-16T07:54:10.240Z,102420.50
2017-07-16T07:56:36.508Z,102421.89
2017-07-16T07:59:02.955Z,102425.16
2017-07-16T08:01:29.208Z,102425.20
2017-07-16T08:03:55.432Z,102424.64
2017-07-16T08:06:21.718Z,102427.20
2017-07-16T08:08:47.956Z,102418.66
2017-07-16T08:11:14.207Z,102424.42
2017-07-16T08:13:40.440Z,102430.53
2017-07-16T08:17:36.351Z,102424.99
2017-07-16T08:20:02.599Z,102423.99
2017-07-16T08:22:28.849Z,102428.37
2017-07-16T08:24:55.087Z,102426.37
2017-07-16T08:27:28.317Z,102427.38
2017-07-16T08:29:54.631Z,102432.20
2017-07-16T08:32:20.850Z,102426.61
2017-07-16T08:34:47.155Z,102428.59
2017-07-16T08:37:13.499Z,102430.70
2017-07-16T08:39:39.749Z,102430.20
2017-07-16T08:42:06.020Z,102429.58
2017-07-16T08:44:32.622Z,102425.56
2017-07-16T08:46:58.970Z,102421.09
2017-07-16T08:49:25.277Z,102420.27
2017-07-16T08:51:51.538Z,102424.33
2017-07-16T08:54:17.903Z,102427.33
2017-07-16T08:56:44.282Z,102430.90
2017-07-16T08:59:10.533Z,102427.97
2017-07-16T09:01:36.944Z,102431.20
2017-07-16T09:04:07.063Z,102428.87
2017-07-16T09:06:33.495Z,102432.20
2017-07-16T09:08:59.929Z,102436.91
2017-07-16T09:11:26.211Z,102438.44
2017-07-16T09:13:52.471Z,102440.95
2017-07-16T09:17:35.557Z,102437.74
2017-07-16T09:20:01.861Z,102441.22
2017-07-16T09:22:28.141Z,102439.52
2017-07-16T09:24:54.410Z,102446.66
2017-07-16T09:27:20.681Z,102444.00
2017-07-16T09:29:47.000Z,102442.44
2017-07-16T09:32:13.258Z,102447.70
2017-07-16T09:34:39.685Z,102445.66
2017-07-16T09:37:05.978Z,102451.70
2017-07-16T09:39:32.264Z,102445.92
2017-07-16T09:41:58.547Z,102445.94
2017-07-16T09:44:25.007Z,102436.23
2017-07-16T09:46:51.525Z,102443.00
2017-07-16T09:49:17.797Z,102440.44
2017-07-16T09:51:44.048Z,102430.83
2017-07-16T09:54:10.405Z,102426.00
2017-07-16T09:56:36.705Z,102419.61
2017-07-16T09:59:03.041Z,102417.57
2017-07-16T10:01:29.294Z,102416.02
2017-07-16T10:03:55.565Z,102409.36
2017-07-16T10:06:21.852Z,102411.20
2017-07-16T10:08:48.706Z,102405.92
2017-07-16T10:11:15.157Z,102409.20
2017-07-16T10:13:41.620Z,102417.89
2017-07-16T10:17:38.136Z,102417.66
2017-07-16T10:20:04.388Z,102422.00
2017-07-16T10:22:30.646Z,102424.87
2017-07-16T10:24:56.917Z,102429.56
2017-07-16T10:27:23.147Z,102425.50
2017-07-16T10:29:49.411Z,102425.94
2017-07-16T10:32:15.672Z,102423.88
2017-07-16T10:34:41.956Z,102429.11
2017-07-16T10:37:08.215Z,102424.23
2017-07-16T10:39:34.483Z,102418.23
2017-07-16T10:42:00.731Z,102413.72
2017-07-16T10:44:26.985Z,102420.32
2017-07-16T10:46:53.262Z,102424.08
2017-07-16T10:49:19.510Z,102417.45
2017-07-16T10:51:46.479Z,102419.11
2017-07-16T10:54:12.729Z,102421.59
2017-07-16T10:56:39.005Z,102421.44
2017-07-16T10:59:05.277Z,102424.67
2017-07-16T11:01:31.522Z,102423.41
2017-07-16T11:03:57.799Z,102424.39
2017-07-16T11:06:24.053Z,102424.35
2017-07-16T11:08:50.295Z,102416.44
2017-07-16T11:11:16.577Z,102414.56
2017-07-16T11:13:42.864Z,102415.83
2017-07-16T11:17:36.020Z,102415.69
2017-07-16T11:20:02.296Z,102415.52
2017-07-16T11:22:28.574Z,102407.64
2017-07-16T11:24:54.851Z,102406.50
2017-07-16T11:27:21.260Z,102400.63
2017-07-16T11:29:47.508Z,102398.60
2017-07-16T11:32:13.949Z,102396.48
2017-07-16T11:34:40.485Z,102400.63
2017-07-16T11:37:06.726Z,102399.73
2017-07-16T11:39:32.983Z,102400.80
2017-07-16T11:41:59.320Z,102400.60
2017-07-16T11:44:25.568Z,102397.72
2017-07-16T11:46:51.977Z,102404.68
2017-07-16T11:49:19.702Z,102402.59
2017-07-16T11:51:46.057Z,102402.14
2017-07-16T11:54:12.308Z,102395.18
2017-07-16T11:56:38.683Z,102392.30
2017-07-16T11:59:05.163Z,102402.22
2017-07-16T12:01:31.562Z,102397.26
2017-07-16T12:03:57.815Z,102395.87
2017-07-16T12:06:24.096Z,102397.67
2017-07-16T12:08:50.334Z,102397.97
2017-07-16T12:11:16.592Z,102396.44
2017-07-16T12:13:42.844Z,102402.53
2017-07-16T12:17:36.820Z,102405.52
2017-07-16T12:20:03.094Z,102398.92
2017-07-16T12:22:29.340Z,102406.89
2017-07-16T12:24:55.592Z,102419.27
2017-07-16T12:27:21.859Z,102412.28
2017-07-16T12:29:48.173Z,102422.33
2017-07-16T12:32:14.442Z,102411.45
2017-07-16T12:34:40.696Z,102408.55
2017-07-16T12:37:06.988Z,102412.67
2017-07-16T12:39:33.259Z,102418.34
2017-07-16T12:41:59.806Z,102413.63
2017-07-16T12:44:26.065Z,102410.58
2017-07-16T12:46:52.317Z,102415.70
2017-07-16T12:49:18.583Z,102415.42
2017-07-16T12:51:44.852Z,102416.80
2017-07-16T12:54:11.165Z,102417.57
2017-07-16T12:56:37.427Z,102413.55
2017-07-16T12:59:03.662Z,102420.02
2017-07-16T13:01:29.909Z,102421.22
2017-07-16T13:03:56.163Z,102420.97
2017-07-16T13:06:22.419Z,102422.20
2017-07-16T13:08:48.686Z,102424.64
2017-07-16T13:11:14.924Z,102427.00
2017-07-16T13:13:41.167Z,102435.26
2017-07-16T13:17:35.827Z,102431.78
2017-07-16T13:20:02.087Z,102434.71
2017-07-16T13:22:28.336Z,102433.61
2017-07-16T13:24:54.577Z,102433.70
2017-07-16T13:27:20.840Z,102437.38
2017-07-16T13:29:47.097Z,102440.94
2017-07-16T13:32:13.360Z,102433.25
2017-07-16T13:34:39.679Z,102431.95
2017-07-16T13:37:05.912Z,102438.11
2017-07-16T13:39:32.171Z,102438.61
2017-07-16T13:41:58.440Z,102448.59
2017-07-16T13:44:24.680Z,102448.31
2017-07-16T13:46:50.952Z,102446.11
2017-07-16T13:49:17.231Z,102440.45
2017-07-16T13:51:43.498Z,102448.91
2017-07-16T13:54:09.743Z,102445.55
2017-07-16T13:56:35.996Z,102449.31
2017-07-16T13:59:02.370Z,102455.33
2017-07-16T14:01:28.640Z,102457.55
2017-07-16T14:03:54.901Z,102460.46
2017-07-16T14:06:21.326Z,102461.58
2017-07-16T14:08:47.559Z,102463.22
2017-07-16T14:11:13.786Z,102469.79
2017-07-16T14:13:40.035Z,102465.92
2017-07-16T14:17:35.267Z,102470.14
2017-07-16T14:20:02.263Z,102470.14
2017-07-16T14:22:28.544Z,102471.96
2017-07-16T14:24:54.780Z,102466.25
2017-07-16T14:27:21.019Z,102467.90
2017-07-16T14:29:47.314Z,102466.30
2017-07-16T14:32:13.564Z,102466.33
2017-07-16T14:34:39.840Z,102465.92
2017-07-16T14:37:06.081Z,102461.30
2017-07-16T14:39:32.332Z,102457.63
2017-07-16T14:41:58.592Z,102461.33
2017-07-16T14:44:24.823Z,102456.80
2017-07-16T14:46:51.079Z,102460.89
2017-07-16T14:49:17.326Z,102459.98
2017-07-16T14:51:43.555Z,102454.67
2017-07-16T14:54:09.826Z,102455.09
2017-07-16T14:56:36.081Z,102442.58
2017-07-16T14:59:02.342Z,102449.70
2017-07-16T15:01:28.591Z,102455.38
2017-07-16T15:03:54.865Z,102449.75
2017-07-16T15:06:21.119Z,102442.47
2017-07-16T15:08:47.357Z,102433.23
2017-07-16T15:11:13.616Z,102423.05
2017-07-16T15:13:39.856Z,102424.33
2017-07-16T15:17:36.023Z,102427.68
2017-07-16T15:20:02.310Z,102435.91
2017-07-16T15:22:28.546Z,102427.09
2017-07-16T15:24:54.776Z,102430.14
2017-07-16T15:27:21.045Z,102434.70
2017-07-16T15:29:47.340Z,102433.89
2017-07-16T15:32:13.577Z,102439.05
2017-07-16T15:34:39.835Z,102431.27
2017-07-16T15:37:06.061Z,102432.66
2017-07-16T15:39:32.329Z,102433.45
2017-07-16T15:41:58.616Z,102431.78
2017-07-16T15:44:24.907Z,102428.47
2017-07-16T15:46:51.149Z,102434.97
2017-07-16T15:49:17.378Z,102430.79
2017-07-16T15:51:43.613Z,102425.53
2017-07-16T15:54:09.891Z,102432.30
2017-07-16T15:56:36.152Z,102425.69
2017-07-16T15:59:02.411Z,102422.42
2017-07-16T16:01:28.654Z,102422.71
2017-07-16T16:03:54.882Z,102424.97
2017-07-16T16:06:21.160Z,102423.79
2017-07-16T16:08:47.467Z,102431.61
2017-07-16T16:11:13.703Z,102428.16
2017-07-16T16:13:39.964Z,102417.56
2017-07-16T16:17:35.637Z,102411.93
2017-07-16T16:20:01.883Z,102407.95
2017-07-16T16:22:28.107Z,102408.41
2017-07-16T16:24:54.351Z,102406.55
2017-07-16T16:27:20.601Z,102409.13
2017-07-16T16:29:46.835Z,102410.91
2017-07-16T16:32:13.104Z,102404.78
2017-07-16T16:34:39.332Z,102409.68
2017-07-16T16:37:05.573Z,102404.94
2017-07-16T16:39:32.550Z,102402.23
2017-07-16T16:41:58.795Z,102409.84
2017-07-16T16:44:25.053Z,102404.62
2017-07-16T16:46:51.292Z,102406.58
2017-07-16T16:49:17.521Z,102404.05
2017-07-16T16:51:43.764Z,102408.42
2017-07-16T16:54:10.016Z,102409.45
2017-07-16T16:56:36.267Z,102413.33
2017-07-16T16:59:02.504Z,102403.05
2017-07-16T17:01:28.757Z,102405.45
2017-07-16T17:03:55.026Z,102411.19
2017-07-16T17:06:21.300Z,102402.70
2017-07-16T17:08:47.551Z,102397.12
2017-07-16T17:11:13.797Z,102387.59
2017-07-16T17:13:40.033Z,102394.22
2017-07-16T17:17:35.572Z,102385.52
2017-07-16T17:20:01.893Z,102382.97
2017-07-16T17:22:28.143Z,102388.91
2017-07-16T17:24:54.383Z,102388.45
2017-07-16T17:27:20.627Z,102387.96
2017-07-16T17:29:46.868Z,102383.23
2017-07-16T17:32:13.164Z,102385.38
2017-07-16T17:34:39.417Z,102381.55
2017-07-16T17:37:05.644Z,102393.42
2017-07-16T17:39:31.897Z,102398.46
2017-07-16T17:41:58.138Z,102387.55
2017-07-16T17:44:24.404Z,102395.72
2017-07-16T17:46:50.672Z,102392.47
2017-07-16T17:49:16.967Z,102394.47
2017-07-16T17:51:43.247Z,102392.90
2017-07-16T17:54:09.507Z,102388.77
2017-07-16T17:56:35.815Z,102398.59
2017-07-16T17:59:02.103Z,102393.81
2017-07-16T18:01:28.457Z,102393.95
2017-07-16T18:03:54.735Z,102396.00
2017-07-16T18:06:21.009Z,102397.98
2017-07-16T18:08:47.284Z,102397.55
2017-07-16T18:11:13.569Z,102392.26
2017-07-16T18:13:39.850Z,102399.37
2017-07-16T18:17:36.789Z,102406.92
2017-07-16T18:20:03.100Z,102399.61
2017-07-16T18:22:29.399Z,102389.14
2017-07-16T18:24:55.694Z,102396.92
2017-07-16T18:27:21.974Z,102396.58
2017-07-16T18:29:48.265Z,102396.78
2017-07-16T18:32:14.522Z,102390.22
2017-07-16T18:34:40.841Z,102391.72
2017-07-16T18:37:07.146Z,102393.66
2017-07-16T18:39:33.430Z,102390.08
2017-07-16T18:41:59.689Z,102392.91
2017-07-16T18:44:25.970Z,102391.15
2017-07-16T18:46:52.287Z,102391.83
2017-07-16T18:49:18.592Z,102393.10
2017-07-16T18:51:44.862Z,102394.19
2017-07-16T18:54:11.157Z,102394.50
2017-07-16T18:56:37.417Z,102396.31
2017-07-16T18:59:03.727Z,102395.84
2017-07-16T19:01:30.004Z,102393.97
2017-07-16T19:03:56.283Z,102394.84
2017-07-16T19:06:22.547Z,102392.11
2017-07-16T19:08:48.813Z,102399.30
2017-07-16T19:11:15.262Z,102392.92
2017-07-16T19:13:41.634Z,102395.64
2017-07-16T19:17:37.246Z,102390.17
2017-07-16T19:20:03.526Z,102393.44
2017-07-16T19:22:29.786Z,102389.77
2017-07-16T19:24:56.071Z,102394.45
2017-07-16T19:27:22.352Z,102394.45
2017-07-16T19:29:48.670Z,102391.09
2017-07-16T19:32:14.959Z,102390.77
2017-07-16T19:34:41.276Z,102396.64
2017-07-16T19:37:07.528Z,102387.47
2017-07-16T19:39:33.772Z,102394.52
2017-07-16T19:42:00.063Z,102396.05
2017-07-16T19:44:26.373Z,102394.92
2017-07-16T19:46:53.401Z,102391.09
2017-07-16T19:49:20.392Z,102393.17
2017-07-16T19:51:46.680Z,102393.43
2017-07-16T19:54:13.704Z,102397.52
2017-07-16T19:56:40.031Z,102399.93
2017-07-16T19:59:06.318Z,102399.53
2017-07-16T20:01:32.587Z,102401.39
2017-07-16T20:03:58.846Z,102402.45
2017-07-16T20:06:25.132Z,102402.59
2017-07-16T20:11:18.317Z,102398.78
2017-07-16T20:13:44.607Z,102395.62
2017-07-16T20:17:35.610Z,102401.50
2017-07-16T20:20:01.913Z,102400.69
2017-07-16T20:22:28.211Z,102399.29
2017-07-16T20:24:54.474Z,102406.20
2017-07-16T20:27:21.567Z,102402.43
2017-07-16T20:29:47.859Z,102403.01
2017-07-16T20:32:14.925Z,102398.48
2017-07-16T20:34:41.198Z,102391.30
2017-07-16T20:37:07.457Z,102394.92
2017-07-16T20:39:33.719Z,102394.36
2017-07-16T20:41:59.992Z,102392.23
2017-07-16T20:44:26.407Z,102387.22
2017-07-16T20:46:53.742Z,102393.59
2017-07-16T20:49:19.997Z,102387.47
2017-07-16T20:51:46.268Z,102388.61
2017-07-16T20:54:12.529Z,102390.47
2017-07-16T20:56:38.808Z,102391.28
2017-07-16T20:59:05.068Z,102392.23
2017-07-16T21:01:31.307Z,102392.44
2017-07-16T21:03:57.564Z,102393.45
2017-07-16T21:06:23.837Z,102389.69
2017-07-16T21:08:50.113Z,102390.55
2017-07-16T21:11:16.388Z,102398.31
2017-07-16T21:13:43.380Z,102391.64
2017-07-16T21:17:35.375Z,102396.70
2017-07-16T21:20:01.637Z,102398.89
2017-07-16T21:22:27.919Z,102397.48
2017-07-16T21:24:54.185Z,102404.88
2017-07-16T21:27:20.490Z,102411.73
2017-07-16T21:29:46.742Z,102406.56
2017-07-16T21:32:13.001Z,102413.31
2017-07-16T21:34:39.314Z,102408.01
2017-07-16T21:37:05.566Z,102407.67
2017-07-16T21:39:31.812Z,102419.16
2017-07-16T21:41:58.084Z,102408.03
2017-07-16T21:44:24.375Z,102417.38
2017-07-16T21:46:50.684Z,102415.56
2017-07-16T21:49:16.963Z,102418.16
2017-07-16T21:51:43.212Z,102414.66
2017-07-16T21:54:09.473Z,102413.45
2017-07-16T21:56:35.761Z,102412.02
2017-07-16T21:59:02.032Z,102412.19
2017-07-16T22:01:28.312Z,102411.84
2017-07-16T22:03:54.587Z,102407.66
2017-07-16T22:06:20.883Z,102409.34
2017-07-16T22:08:47.145Z,102409.63
2017-07-16T22:11:13.436Z,102407.97
2017-07-16T22:13:39.703Z,102410.95
2017-07-16T22:17:37.892Z,102404.88
2017-07-16T22:20:04.160Z,102404.31
2017-07-16T22:22:30.440Z,102401.14
2017-07-16T22:24:56.710Z,102400.72
2017-07-16T22:27:23.219Z,102399.56
2017-07-16T22:29:49.492Z,102398.73
2017-07-16T22:32:15.805Z,102402.89
2017-07-16T22:34:42.086Z,102402.42
2017-07-16T22:37:08.429Z,102405.14
2017-07-16T22:39:34.732Z,102393.61
2017-07-16T22:42:01.474Z,102400.59
2017-07-16T22:44:27.781Z,102402.98
2017-07-16T22:46:54.048Z,102401.32
2017-07-16T22:49:20.304Z,102393.84
2017-07-16T22:51:46.575Z,102396.00
2017-07-16T22:54:12.851Z,102390.14
2017-07-16T22:56:39.883Z,102391.14
2017-07-16T22:59:06.175Z,102388.69
2017-07-16T23:01:32.467Z,102382.77
2017-07-16T23:03:58.751Z,102390.75
2017-07-16T23:06:25.058Z,102390.64
2017-07-16T23:08:51.330Z,102385.44
2017-07-16T23:11:17.587Z,102390.17
2017-07-16T23:13:43.853Z,102384.38
2017-07-16T23:17:36.751Z,102390.14
2017-07-16T23:20:03.038Z,102388.59
2017-07-16T23:22:32.158Z,102387.41
2017-07-16T23:24:58.466Z,102383.86
2017-07-16T23:27:24.717Z,102380.81
2017-07-16T23:29:50.988Z,102381.09
2017-07-16T23:32:17.281Z,102379.32
2017-07-16T23:34:43.546Z,102377.99
2017-07-16T23:37:09.810Z,102380.48
2017-07-16T23:39:36.095Z,102389.18
2017-07-16T23:42:02.361Z,102374.83
2017-07-16T23:44:28.642Z,102379.32
2017-07-16T23:46:54.899Z,102378.88
2017-07-16T23:49:21.152Z,102384.12
2017-07-16T23:51:47.422Z,102379.01
2017-07-16T23:54:13.819Z,102379.53
2017-07-16T23:56:40.129Z,102385.70
2017-07-16T23:59:06.405Z,102377.48
